sensor_id;sensor_type;location;lat;lon;timestamp;noise_LAeq;noise_LA_min;noise_LA_max;noise_LA01;noise_LA95
60031;Laerm;45901;47.600;9.890;2023-05-03T00:01:44;40.00;37.70;45.33;;
60031;Laerm;45901;47.600;9.890;2023-05-03T00:04:11;39.82;37.88;41.46;;
60031;Laerm;45901;47.600;9.890;2023-05-03T00:06:42;39.83;37.32;41.30;;
60031;Laerm;45901;47.600;9.890;2023-05-03T00:09:10;39.80;37.88;41.53;;
60031;Laerm;45901;47.600;9.890;2023-05-03T00:11:37;39.78;38.05;41.38;;
60031;Laerm;45901;47.600;9.890;2023-05-03T00:14:06;39.82;37.70;41.46;;
60031;Laerm;45901;47.600;9.890;2023-05-03T00:16:34;39.89;38.05;44.23;;
60031;Laerm;45901;47.600;9.890;2023-05-03T00:19:01;40.40;35.66;67.56;;
60031;Laerm;45901;47.600;9.890;2023-05-03T00:21:29;39.78;37.70;41.53;;
60031;Laerm;45901;47.600;9.890;2023-05-03T00:23:56;39.76;37.70;41.61;;
60031;Laerm;45901;47.600;9.890;2023-05-03T00:26:24;39.83;37.70;43.77;;
60031;Laerm;45901;47.600;9.890;2023-05-03T00:28:52;39.81;37.70;41.89;;
60031;Laerm;45901;47.600;9.890;2023-05-03T00:31:20;39.85;37.88;44.23;;
60031;Laerm;45901;47.600;9.890;2023-05-03T00:33:48;39.78;37.32;41.46;;
60031;Laerm;45901;47.600;9.890;2023-05-03T00:36:15;39.69;37.70;41.30;;
60031;Laerm;45901;47.600;9.890;2023-05-03T00:38:43;39.72;37.70;41.38;;
60031;Laerm;45901;47.600;9.890;2023-05-03T00:41:10;39.76;37.70;41.68;;
60031;Laerm;45901;47.600;9.890;2023-05-03T00:43:39;39.76;37.70;41.22;;
60031;Laerm;45901;47.600;9.890;2023-05-03T00:46:06;39.89;37.70;45.14;;
60031;Laerm;45901;47.600;9.890;2023-05-03T00:48:38;39.78;37.12;41.46;;
60031;Laerm;45901;47.600;9.890;2023-05-03T00:51:06;39.75;37.52;41.30;;
60031;Laerm;45901;47.600;9.890;2023-05-03T00:53:34;39.75;37.88;41.30;;
60031;Laerm;45901;47.600;9.890;2023-05-03T00:56:02;39.82;37.88;41.38;;
60031;Laerm;45901;47.600;9.890;2023-05-03T00:58:30;39.89;37.88;42.53;;
60031;Laerm;45901;47.600;9.890;2023-05-03T01:01:01;40.00;37.32;44.31;;
60031;Laerm;45901;47.600;9.890;2023-05-03T01:03:29;39.80;37.88;41.68;;
60031;Laerm;45901;47.600;9.890;2023-05-03T01:06:14;39.79;38.05;41.61;;
60031;Laerm;45901;47.600;9.890;2023-05-03T01:08:54;39.82;38.05;41.61;;
60031;Laerm;45901;47.600;9.890;2023-05-03T01:11:32;39.81;37.70;41.46;;
60031;Laerm;45901;47.600;9.890;2023-05-03T01:14:09;39.82;37.87;41.33;;
60031;Laerm;45901;47.600;9.890;2023-05-03T01:16:47;39.86;37.70;43.86;;
60031;Laerm;45901;47.600;9.890;2023-05-03T01:19:30;39.84;37.88;41.75;;
60031;Laerm;45901;47.600;9.890;2023-05-03T01:22:09;39.85;37.88;41.53;;
60031;Laerm;45901;47.600;9.890;2023-05-03T01:24:48;39.82;37.88;41.30;;
60031;Laerm;45901;47.600;9.890;2023-05-03T01:27:18;39.84;38.02;41.61;;
60031;Laerm;45901;47.600;9.890;2023-05-03T01:29:46;39.93;37.70;44.59;;
60031;Laerm;45901;47.600;9.890;2023-05-03T01:32:21;39.82;37.70;41.38;;
60031;Laerm;45901;47.600;9.890;2023-05-03T01:35:03;39.83;37.88;41.46;;
60031;Laerm;45901;47.600;9.890;2023-05-03T01:37:31;39.82;37.70;41.46;;
60031;Laerm;45901;47.600;9.890;2023-05-03T01:40:02;39.87;37.70;41.53;;
60031;Laerm;45901;47.600;9.890;2023-05-03T01:42:32;39.81;37.70;41.46;;
60031;Laerm;45901;47.600;9.890;2023-05-03T01:45:02;39.88;37.70;44.11;;
60031;Laerm;45901;47.600;9.890;2023-05-03T01:47:30;39.83;38.05;41.30;;
60031;Laerm;45901;47.600;9.890;2023-05-03T01:49:58;39.80;37.32;41.38;;
60031;Laerm;45901;47.600;9.890;2023-05-03T01:52:25;39.80;37.88;41.30;;
60031;Laerm;45901;47.600;9.890;2023-05-03T01:54:53;39.83;37.70;41.46;;
60031;Laerm;45901;47.600;9.890;2023-05-03T01:57:20;39.84;37.88;41.38;;
60031;Laerm;45901;47.600;9.890;2023-05-03T01:59:49;40.06;37.70;44.54;;
60031;Laerm;45901;47.600;9.890;2023-05-03T02:02:16;39.82;37.70;41.53;;
60031;Laerm;45901;47.600;9.890;2023-05-03T02:04:43;39.82;37.70;41.38;;
60031;Laerm;45901;47.600;9.890;2023-05-03T02:07:11;39.85;37.52;41.46;;
60031;Laerm;45901;47.600;9.890;2023-05-03T02:09:39;39.88;38.05;41.61;;
60031;Laerm;45901;47.600;9.890;2023-05-03T02:12:06;39.82;37.52;41.68;;
60031;Laerm;45901;47.600;9.890;2023-05-03T02:14:34;39.80;37.88;41.33;;
60031;Laerm;45901;47.600;9.890;2023-05-03T02:17:03;39.85;37.88;43.63;;
60031;Laerm;45901;47.600;9.890;2023-05-03T02:19:33;39.84;37.70;41.30;;
60031;Laerm;45901;47.600;9.890;2023-05-03T02:22:01;39.81;37.70;41.53;;
60031;Laerm;45901;47.600;9.890;2023-05-03T02:24:28;39.83;37.70;41.46;;
60031;Laerm;45901;47.600;9.890;2023-05-03T02:26:56;39.85;37.88;41.46;;
60031;Laerm;45901;47.600;9.890;2023-05-03T02:29:23;39.87;37.52;43.86;;
60031;Laerm;45901;47.600;9.890;2023-05-03T02:31:51;39.90;37.70;44.80;;
60031;Laerm;45901;47.600;9.890;2023-05-03T02:34:20;39.81;37.70;41.46;;
60031;Laerm;45901;47.600;9.890;2023-05-03T02:36:47;39.81;37.70;41.46;;
60031;Laerm;45901;47.600;9.890;2023-05-03T02:39:14;39.83;37.70;41.38;;
60031;Laerm;45901;47.600;9.890;2023-05-03T02:41:42;39.81;37.52;41.89;;
60031;Laerm;45901;47.600;9.890;2023-05-03T02:44:09;39.82;37.88;41.46;;
60031;Laerm;45901;47.600;9.890;2023-05-03T02:46:36;39.98;37.70;44.80;;
60031;Laerm;45901;47.600;9.890;2023-05-03T02:49:05;39.99;37.70;43.63;;
60031;Laerm;45901;47.600;9.890;2023-05-03T02:51:34;39.99;38.05;43.44;;
60031;Laerm;45901;47.600;9.890;2023-05-03T02:54:02;39.98;37.12;43.39;;
60031;Laerm;45901;47.600;9.890;2023-05-03T02:56:29;39.92;37.88;42.41;;
60031;Laerm;45901;47.600;9.890;2023-05-03T02:58:58;39.96;37.88;42.98;;
60031;Laerm;45901;47.600;9.890;2023-05-03T03:01:26;40.19;37.52;44.86;;
60031;Laerm;45901;47.600;9.890;2023-05-03T03:03:56;39.97;37.88;42.98;;
60031;Laerm;45901;47.600;9.890;2023-05-03T03:06:23;39.98;37.70;42.59;;
60031;Laerm;45901;47.600;9.890;2023-05-03T03:08:52;39.99;38.05;42.82;;
60031;Laerm;45901;47.600;9.890;2023-05-03T03:11:19;40.61;37.70;50.17;;
60031;Laerm;45901;47.600;9.890;2023-05-03T03:13:47;40.75;38.21;51.17;;
60031;Laerm;45901;47.600;9.890;2023-05-03T03:16:14;40.33;37.52;49.92;;
60031;Laerm;45901;47.600;9.890;2023-05-03T03:18:42;41.34;38.05;52.33;;
60031;Laerm;45901;47.600;9.890;2023-05-03T03:21:09;41.25;38.05;51.26;;
60031;Laerm;45901;47.600;9.890;2023-05-03T03:23:36;40.02;37.70;42.82;;
60031;Laerm;45901;47.600;9.890;2023-05-03T03:26:05;40.01;38.05;42.09;;
60031;Laerm;45901;47.600;9.890;2023-05-03T03:28:32;40.00;38.05;45.39;;
60031;Laerm;45901;47.600;9.890;2023-05-03T03:31:00;40.03;38.05;44.47;;
60031;Laerm;45901;47.600;9.890;2023-05-03T03:33:27;40.03;37.52;42.53;;
60031;Laerm;45901;47.600;9.890;2023-05-03T03:35:55;40.16;37.70;45.11;;
60031;Laerm;45901;47.600;9.890;2023-05-03T03:38:22;40.09;37.70;42.88;;
60031;Laerm;45901;47.600;9.890;2023-05-03T03:40:49;40.05;38.18;41.75;;
60031;Laerm;45901;47.600;9.890;2023-05-03T03:43:19;40.14;38.21;43.14;;
60031;Laerm;45901;47.600;9.890;2023-05-03T03:45:46;40.11;37.88;43.86;;
60031;Laerm;45901;47.600;9.890;2023-05-03T03:48:13;40.10;38.21;44.03;;
60031;Laerm;45901;47.600;9.890;2023-05-03T03:50:41;40.04;38.05;43.04;;
60031;Laerm;45901;47.600;9.890;2023-05-03T03:53:08;39.98;37.70;42.03;;
60031;Laerm;45901;47.600;9.890;2023-05-03T03:55:36;39.97;37.88;41.68;;
60031;Laerm;45901;47.600;9.890;2023-05-03T03:58:05;39.91;37.88;41.61;;
60031;Laerm;45901;47.600;9.890;2023-05-03T04:00:35;40.88;37.70;69.02;;
60031;Laerm;45901;47.600;9.890;2023-05-03T04:03:03;40.03;37.70;47.22;;
60031;Laerm;45901;47.600;9.890;2023-05-03T04:05:31;40.00;38.21;41.53;;
60031;Laerm;45901;47.600;9.890;2023-05-03T04:07:58;39.94;37.88;44.90;;
60031;Laerm;45901;47.600;9.890;2023-05-03T04:10:26;39.90;37.88;41.61;;
60031;Laerm;45901;47.600;9.890;2023-05-03T04:12:53;39.84;37.70;41.38;;
60031;Laerm;45901;47.600;9.890;2023-05-03T04:15:20;39.78;37.70;43.54;;
60031;Laerm;45901;47.600;9.890;2023-05-03T04:17:49;39.76;37.52;41.46;;
60031;Laerm;45901;47.600;9.890;2023-05-03T04:20:17;39.81;37.70;41.89;;
60031;Laerm;45901;47.600;9.890;2023-05-03T04:22:46;39.84;37.70;42.98;;
60031;Laerm;45901;47.600;9.890;2023-05-03T04:25:13;39.84;38.05;42.16;;
60031;Laerm;45901;47.600;9.890;2023-05-03T04:27:42;39.79;37.70;41.46;;
60031;Laerm;45901;47.600;9.890;2023-05-03T04:30:10;39.81;37.70;42.93;;
60031;Laerm;45901;47.600;9.890;2023-05-03T04:32:40;40.02;37.88;44.31;;
60031;Laerm;45901;47.600;9.890;2023-05-03T04:35:10;39.78;37.52;42.47;;
60031;Laerm;45901;47.600;9.890;2023-05-03T04:37:38;39.80;37.88;41.46;;
60031;Laerm;45901;47.600;9.890;2023-05-03T04:40:06;39.78;37.32;41.75;;
60031;Laerm;45901;47.600;9.890;2023-05-03T04:42:34;39.73;37.88;43.09;;
60031;Laerm;45901;47.600;9.890;2023-05-03T04:45:02;39.90;37.87;44.11;;
60031;Laerm;45901;47.600;9.890;2023-05-03T04:47:31;39.93;37.70;43.24;;
60031;Laerm;45901;47.600;9.890;2023-05-03T04:49:59;39.79;37.88;41.61;;
60031;Laerm;45901;47.600;9.890;2023-05-03T04:52:28;39.80;37.52;41.61;;
60031;Laerm;45901;47.600;9.890;2023-05-03T04:54:56;39.81;37.70;44.11;;
60031;Laerm;45901;47.600;9.890;2023-05-03T04:57:24;39.74;38.05;41.75;;
60031;Laerm;45901;47.600;9.890;2023-05-03T04:59:51;39.80;37.70;43.04;;
60031;Laerm;45901;47.600;9.890;2023-05-03T05:02:20;40.31;37.70;44.43;;
60031;Laerm;45901;47.600;9.890;2023-05-03T05:04:47;40.04;38.05;45.36;;
60031;Laerm;45901;47.600;9.890;2023-05-03T05:07:15;39.75;37.32;42.65;;
60031;Laerm;45901;47.600;9.890;2023-05-03T05:09:44;39.85;37.70;42.53;;
60031;Laerm;45901;47.600;9.890;2023-05-03T05:12:11;40.03;37.70;43.34;;
60031;Laerm;45901;47.600;9.890;2023-05-03T05:14:39;39.95;37.52;43.90;;
60031;Laerm;45901;47.600;9.890;2023-05-03T05:17:06;39.98;37.32;42.71;;
60031;Laerm;45901;47.600;9.890;2023-05-03T05:19:34;40.14;37.70;42.71;;
60031;Laerm;45901;47.600;9.890;2023-05-03T05:22:01;40.35;37.88;44.03;;
60031;Laerm;45901;47.600;9.890;2023-05-03T05:24:29;40.00;37.52;46.13;;
60031;Laerm;45901;47.600;9.890;2023-05-03T05:26:58;40.01;37.88;42.82;;
60031;Laerm;45901;47.600;9.890;2023-05-03T05:29:26;40.31;37.88;54.28;;
60031;Laerm;45901;47.600;9.890;2023-05-03T05:31:53;40.78;37.88;51.93;;
60031;Laerm;45901;47.600;9.890;2023-05-03T05:34:21;39.93;37.70;43.77;;
60031;Laerm;45901;47.600;9.890;2023-05-03T05:36:48;40.07;38.05;42.71;;
60031;Laerm;45901;47.600;9.890;2023-05-03T05:39:17;40.11;37.70;50.80;;
60031;Laerm;45901;47.600;9.890;2023-05-03T05:41:50;39.72;37.52;51.71;;
60031;Laerm;45901;47.600;9.890;2023-05-03T05:44:19;39.73;37.32;41.75;;
60031;Laerm;45901;47.600;9.890;2023-05-03T05:46:47;39.92;37.70;43.72;;
60031;Laerm;45901;47.600;9.890;2023-05-03T05:49:14;39.95;37.52;42.53;;
60031;Laerm;45901;47.600;9.890;2023-05-03T05:51:42;40.16;36.91;43.99;;
60031;Laerm;45901;47.600;9.890;2023-05-03T05:54:10;40.58;37.88;43.86;;
60031;Laerm;45901;47.600;9.890;2023-05-03T05:56:37;39.71;37.52;44.51;;
60031;Laerm;45901;47.600;9.890;2023-05-03T05:59:04;39.88;37.32;43.42;;
60031;Laerm;45901;47.600;9.890;2023-05-03T06:01:33;40.08;37.87;44.03;;
60031;Laerm;45901;47.600;9.890;2023-05-03T06:04:01;39.88;37.87;43.39;;
60031;Laerm;45901;47.600;9.890;2023-05-03T06:06:29;39.81;37.52;42.65;;
60031;Laerm;45901;47.600;9.890;2023-05-03T06:08:56;41.38;35.04;71.26;;
60031;Laerm;45901;47.600;9.890;2023-05-03T06:11:23;40.19;38.05;42.59;;
60031;Laerm;45901;47.600;9.890;2023-05-03T06:13:51;39.87;37.52;42.71;;
60031;Laerm;45901;47.600;9.890;2023-05-03T06:16:19;41.21;37.88;47.18;;
60031;Laerm;45901;47.600;9.890;2023-05-03T06:18:48;41.66;36.91;49.10;;
60031;Laerm;45901;47.600;9.890;2023-05-03T06:21:15;40.00;37.88;42.09;;
60031;Laerm;45901;47.600;9.890;2023-05-03T06:23:43;41.36;37.32;47.40;;
60031;Laerm;45901;47.600;9.890;2023-05-03T06:26:10;44.42;41.06;49.90;;
60031;Laerm;45901;47.600;9.890;2023-05-03T06:28:38;43.31;38.05;48.78;;
60031;Laerm;45901;47.600;9.890;2023-05-03T06:31:05;39.99;37.70;43.77;;
60031;Laerm;45901;47.600;9.890;2023-05-03T06:33:32;40.06;37.88;41.68;;
60031;Laerm;45901;47.600;9.890;2023-05-03T06:36:01;40.16;38.21;41.96;;
60031;Laerm;45901;47.600;9.890;2023-05-03T06:38:29;40.31;38.21;44.43;;
60031;Laerm;45901;47.600;9.890;2023-05-03T06:40:57;40.06;38.21;41.89;;
60031;Laerm;45901;47.600;9.890;2023-05-03T06:43:24;40.10;38.37;42.41;;
60031;Laerm;45901;47.600;9.890;2023-05-03T06:45:52;40.45;38.05;43.68;;
60031;Laerm;45901;47.600;9.890;2023-05-03T06:48:19;40.49;38.37;44.03;;
60031;Laerm;45901;47.600;9.890;2023-05-03T06:50:47;40.20;38.37;42.47;;
60031;Laerm;45901;47.600;9.890;2023-05-03T06:53:16;40.14;38.37;43.99;;
60031;Laerm;45901;47.600;9.890;2023-05-03T06:55:44;40.16;38.37;45.14;;
60031;Laerm;45901;47.600;9.890;2023-05-03T06:58:11;40.33;38.21;42.53;;
60031;Laerm;45901;47.600;9.890;2023-05-03T07:00:39;40.61;38.05;46.10;;
60031;Laerm;45901;47.600;9.890;2023-05-03T07:03:06;40.23;38.37;41.75;;
60031;Laerm;45901;47.600;9.890;2023-05-03T07:05:33;40.38;38.52;42.82;;
60031;Laerm;45901;47.600;9.890;2023-05-03T07:08:01;40.38;38.52;44.15;;
60031;Laerm;45901;47.600;9.890;2023-05-03T07:10:30;40.29;38.37;41.96;;
60031;Laerm;45901;47.600;9.890;2023-05-03T07:12:58;40.27;38.52;42.03;;
60031;Laerm;45901;47.600;9.890;2023-05-03T07:15:25;40.31;38.52;43.63;;
60031;Laerm;45901;47.600;9.890;2023-05-03T07:17:53;40.36;38.52;42.35;;
60031;Laerm;45901;47.600;9.890;2023-05-03T07:20:20;40.56;38.37;46.59;;
60031;Laerm;45901;47.600;9.890;2023-05-03T07:22:48;40.31;38.52;41.75;;
60031;Laerm;45901;47.600;9.890;2023-05-03T07:25:15;40.32;37.88;42.76;;
60031;Laerm;45901;47.600;9.890;2023-05-03T07:27:44;40.30;38.52;41.75;;
60031;Laerm;45901;47.600;9.890;2023-05-03T07:30:13;40.53;38.67;43.34;;
60031;Laerm;45901;47.600;9.890;2023-05-03T07:32:41;40.48;38.37;42.59;;
60031;Laerm;45901;47.600;9.890;2023-05-03T07:35:08;40.38;38.52;43.68;;
60031;Laerm;45901;47.600;9.890;2023-05-03T07:37:36;40.44;38.67;45.30;;
60031;Laerm;45901;47.600;9.890;2023-05-03T07:40:05;40.39;38.37;42.09;;
60031;Laerm;45901;47.600;9.890;2023-05-03T07:42:33;40.50;38.52;44.15;;
60031;Laerm;45901;47.600;9.890;2023-05-03T07:45:02;40.80;38.52;43.99;;
60031;Laerm;45901;47.600;9.890;2023-05-03T07:47:30;40.73;38.67;42.88;;
60031;Laerm;45901;47.600;9.890;2023-05-03T07:49:58;40.47;37.70;42.09;;
60031;Laerm;45901;47.600;9.890;2023-05-03T07:52:26;40.49;38.67;42.16;;
60031;Laerm;45901;47.600;9.890;2023-05-03T07:54:53;40.68;38.21;43.49;;
60031;Laerm;45901;47.600;9.890;2023-05-03T07:57:21;40.61;38.67;43.99;;
60031;Laerm;45901;47.600;9.890;2023-05-03T07:59:49;40.93;38.52;47.36;;
60031;Laerm;45901;47.600;9.890;2023-05-03T08:02:18;40.93;38.37;47.34;;
60031;Laerm;45901;47.600;9.890;2023-05-03T08:04:45;40.60;38.95;43.54;;
60031;Laerm;45901;47.600;9.890;2023-05-03T08:07:13;41.09;38.81;46.82;;
60031;Laerm;45901;47.600;9.890;2023-05-03T08:09:40;41.66;38.95;44.97;;
60031;Laerm;45901;47.600;9.890;2023-05-03T08:12:08;42.15;39.08;53.88;;
60031;Laerm;45901;47.600;9.890;2023-05-03T08:14:35;42.66;39.21;55.66;;
60031;Laerm;45901;47.600;9.890;2023-05-03T08:17:03;40.78;38.81;48.45;;
60031;Laerm;45901;47.600;9.890;2023-05-03T08:19:32;42.97;38.81;58.98;;
60031;Laerm;45901;47.600;9.890;2023-05-03T08:22:00;40.82;38.52;44.31;;
60031;Laerm;45901;47.600;9.890;2023-05-03T08:24:28;40.74;38.67;43.49;;
60031;Laerm;45901;47.600;9.890;2023-05-03T08:26:55;41.20;38.52;48.92;;
60031;Laerm;45901;47.600;9.890;2023-05-03T08:29:23;41.47;38.95;45.45;;
60031;Laerm;45901;47.600;9.890;2023-05-03T08:31:51;40.93;38.95;48.52;;
60031;Laerm;45901;47.600;9.890;2023-05-03T08:34:19;40.98;38.21;44.11;;
60031;Laerm;45901;47.600;9.890;2023-05-03T08:36:47;41.43;38.52;61.58;;
60031;Laerm;45901;47.600;9.890;2023-05-03T08:39:15;40.65;38.67;42.71;;
60031;Laerm;45901;47.600;9.890;2023-05-03T08:41:43;40.47;38.37;42.22;;
60031;Laerm;45901;47.600;9.890;2023-05-03T08:44:11;40.51;38.21;43.68;;
60031;Laerm;45901;47.600;9.890;2023-05-03T08:46:45;41.09;38.37;46.45;;
60031;Laerm;45901;47.600;9.890;2023-05-03T08:49:14;40.80;38.05;45.72;;
60031;Laerm;45901;47.600;9.890;2023-05-03T08:51:43;41.11;38.52;44.65;;
60031;Laerm;45901;47.600;9.890;2023-05-03T08:54:13;40.82;38.52;47.93;;
60031;Laerm;45901;47.600;9.890;2023-05-03T08:56:43;40.78;37.70;43.81;;
60031;Laerm;45901;47.600;9.890;2023-05-03T08:59:11;41.06;38.52;44.58;;
60031;Laerm;45901;47.600;9.890;2023-05-03T09:01:41;41.84;38.67;54.19;;
60031;Laerm;45901;47.600;9.890;2023-05-03T09:04:10;40.74;38.52;42.53;;
60031;Laerm;45901;47.600;9.890;2023-05-03T09:06:38;40.77;37.88;44.39;;
60031;Laerm;45901;47.600;9.890;2023-05-03T09:09:06;40.70;38.21;43.63;;
60031;Laerm;45901;47.600;9.890;2023-05-03T09:11:37;40.53;38.52;43.68;;
60031;Laerm;45901;47.600;9.890;2023-05-03T09:14:10;41.08;37.88;44.90;;
60031;Laerm;45901;47.600;9.890;2023-05-03T09:16:38;40.82;38.05;45.07;;
60031;Laerm;45901;47.600;9.890;2023-05-03T09:19:07;41.40;38.52;46.07;;
60031;Laerm;45901;47.600;9.890;2023-05-03T09:21:37;40.81;38.67;48.36;;
60031;Laerm;45901;47.600;9.890;2023-05-03T09:24:12;42.60;39.21;51.33;;
60031;Laerm;45901;47.600;9.890;2023-05-03T09:26:42;42.03;38.67;52.42;;
60031;Laerm;45901;47.600;9.890;2023-05-03T09:29:25;40.93;38.05;49.74;;
60031;Laerm;45901;47.600;9.890;2023-05-03T09:31:58;41.21;38.52;54.13;;
60031;Laerm;45901;47.600;9.890;2023-05-03T09:34:26;41.10;37.52;50.25;;
60031;Laerm;45901;47.600;9.890;2023-05-03T09:36:53;41.28;38.37;55.50;;
60031;Laerm;45901;47.600;9.890;2023-05-03T09:39:21;41.33;38.37;45.54;;
60031;Laerm;45901;47.600;9.890;2023-05-03T09:41:50;40.62;38.05;45.45;;
60031;Laerm;45901;47.600;9.890;2023-05-03T09:44:17;40.59;37.70;45.51;;
60031;Laerm;45901;47.600;9.890;2023-05-03T09:47:03;40.45;37.88;46.64;;
60031;Laerm;45901;47.600;9.890;2023-05-03T09:49:31;40.24;37.88;47.79;;
60031;Laerm;45901;47.600;9.890;2023-05-03T09:51:59;40.19;37.52;42.93;;
60031;Laerm;45901;47.600;9.890;2023-05-03T09:54:27;41.26;38.37;45.80;;
60031;Laerm;45901;47.600;9.890;2023-05-03T09:56:57;41.49;37.88;50.92;;
60031;Laerm;45901;47.600;9.890;2023-05-03T09:59:27;40.42;37.88;47.55;;
60031;Laerm;45901;47.600;9.890;2023-05-03T10:01:56;41.75;38.37;53.38;;
60031;Laerm;45901;47.600;9.890;2023-05-03T10:04:27;40.86;38.05;49.82;;
60031;Laerm;45901;47.600;9.890;2023-05-03T10:06:58;40.57;37.70;51.59;;
60031;Laerm;45901;47.600;9.890;2023-05-03T10:09:33;40.48;37.88;50.66;;
60031;Laerm;45901;47.600;9.890;2023-05-03T10:12:08;40.46;37.70;47.57;;
60031;Laerm;45901;47.600;9.890;2023-05-03T10:14:40;41.08;38.05;55.29;;
60031;Laerm;45901;47.600;9.890;2023-05-03T10:17:15;40.39;37.52;52.33;;
60031;Laerm;45901;47.600;9.890;2023-05-03T10:19:50;40.16;37.70;46.50;;
60031;Laerm;45901;47.600;9.890;2023-05-03T10:22:18;40.25;37.70;45.27;;
60031;Laerm;45901;47.600;9.890;2023-05-03T10:25:15;40.36;37.12;47.32;;
60031;Laerm;45901;47.600;9.890;2023-05-03T10:27:51;40.30;37.70;45.39;;
60031;Laerm;45901;47.600;9.890;2023-05-03T10:30:30;40.75;37.32;48.95;;
60031;Laerm;45901;47.600;9.890;2023-05-03T10:33:29;40.28;37.52;53.00;;
60031;Laerm;45901;47.600;9.890;2023-05-03T10:35:58;40.54;37.70;52.11;;
60031;Laerm;45901;47.600;9.890;2023-05-03T10:38:27;41.38;37.88;58.85;;
60031;Laerm;45901;47.600;9.890;2023-05-03T10:40:56;41.30;38.05;53.49;;
60031;Laerm;45901;47.600;9.890;2023-05-03T10:43:42;41.72;37.88;55.82;;
60031;Laerm;45901;47.600;9.890;2023-05-03T10:46:30;42.04;38.52;56.96;;
60031;Laerm;45901;47.600;9.890;2023-05-03T10:49:16;41.24;38.37;58.83;;
60031;Laerm;45901;47.600;9.890;2023-05-03T10:51:44;41.07;37.88;49.53;;
60031;Laerm;45901;47.600;9.890;2023-05-03T10:54:11;41.86;38.37;50.68;;
60031;Laerm;45901;47.600;9.890;2023-05-03T10:56:50;41.11;38.21;47.68;;
60031;Laerm;45901;47.600;9.890;2023-05-03T10:59:20;41.28;38.67;46.87;;
60031;Laerm;45901;47.600;9.890;2023-05-03T11:01:50;42.22;39.21;53.19;;
60031;Laerm;45901;47.600;9.890;2023-05-03T11:04:29;42.82;39.34;47.90;;
60031;Laerm;45901;47.600;9.890;2023-05-03T11:06:58;42.27;39.46;51.57;;
60031;Laerm;45901;47.600;9.890;2023-05-03T11:09:31;41.68;38.37;53.28;;
60031;Laerm;45901;47.600;9.890;2023-05-03T11:12:03;41.98;38.52;55.50;;
60031;Laerm;45901;47.600;9.890;2023-05-03T11:14:32;42.16;38.32;60.14;;
60031;Laerm;45901;47.600;9.890;2023-05-03T11:17:00;42.13;39.08;59.15;;
60031;Laerm;45901;47.600;9.890;2023-05-03T11:19:28;43.79;39.34;57.37;;
60031;Laerm;45901;47.600;9.890;2023-05-03T11:21:56;44.12;40.33;56.87;;
60031;Laerm;45901;47.600;9.890;2023-05-03T11:24:24;42.97;38.67;55.35;;
60031;Laerm;45901;47.600;9.890;2023-05-03T11:26:51;41.36;37.88;52.34;;
60031;Laerm;45901;47.600;9.890;2023-05-03T11:29:19;41.16;38.05;54.85;;
60031;Laerm;45901;47.600;9.890;2023-05-03T11:31:48;41.80;37.70;58.31;;
60031;Laerm;45901;47.600;9.890;2023-05-03T11:34:16;41.55;38.05;56.83;;
60031;Laerm;45901;47.600;9.890;2023-05-03T11:36:43;41.44;38.05;55.01;;
60031;Laerm;45901;47.600;9.890;2023-05-03T11:39:12;40.59;37.52;51.82;;
60031;Laerm;45901;47.600;9.890;2023-05-03T11:41:40;41.07;37.88;51.80;;
60031;Laerm;45901;47.600;9.890;2023-05-03T11:44:08;41.23;38.52;51.82;;
60031;Laerm;45901;47.600;9.890;2023-05-03T11:46:38;40.73;37.88;50.05;;
60031;Laerm;45901;47.600;9.890;2023-05-03T11:49:07;40.39;37.70;45.04;;
60031;Laerm;45901;47.600;9.890;2023-05-03T11:51:35;40.36;37.88;46.02;;
60031;Laerm;45901;47.600;9.890;2023-05-03T11:54:03;40.39;37.12;43.42;;
60031;Laerm;45901;47.600;9.890;2023-05-03T11:56:31;40.29;37.52;45.33;;
60031;Laerm;45901;47.600;9.890;2023-05-03T11:59:00;40.39;37.88;45.54;;
60031;Laerm;45901;47.600;9.890;2023-05-03T12:01:29;41.28;38.05;50.09;;
60031;Laerm;45901;47.600;9.890;2023-05-03T12:03:58;40.84;37.52;46.84;;
60031;Laerm;45901;47.600;9.890;2023-05-03T12:06:29;40.73;37.52;45.80;;
60031;Laerm;45901;47.600;9.890;2023-05-03T12:08:59;40.19;37.32;44.47;;
60031;Laerm;45901;47.600;9.890;2023-05-03T12:11:28;40.59;37.70;44.31;;
60031;Laerm;45901;47.600;9.890;2023-05-03T12:13:56;40.28;37.70;43.04;;
60031;Laerm;45901;47.600;9.890;2023-05-03T12:16:25;40.01;37.52;45.23;;
60031;Laerm;45901;47.600;9.890;2023-05-03T12:18:54;40.31;37.88;49.83;;
60031;Laerm;45901;47.600;9.890;2023-05-03T12:21:24;39.99;37.70;44.43;;
60031;Laerm;45901;47.600;9.890;2023-05-03T12:23:53;40.75;37.88;46.97;;
60031;Laerm;45901;47.600;9.890;2023-05-03T12:26:21;40.23;37.88;54.60;;
60031;Laerm;45901;47.600;9.890;2023-05-03T12:28:50;41.18;38.21;45.17;;
60031;Laerm;45901;47.600;9.890;2023-05-03T12:31:17;42.30;38.87;57.25;;
60031;Laerm;45901;47.600;9.890;2023-05-03T12:33:45;41.19;37.88;45.33;;
60031;Laerm;45901;47.600;9.890;2023-05-03T12:36:13;41.75;38.81;46.64;;
60031;Laerm;45901;47.600;9.890;2023-05-03T12:38:41;40.66;38.21;44.90;;
60031;Laerm;45901;47.600;9.890;2023-05-03T12:41:10;41.94;37.88;50.09;;
60031;Laerm;45901;47.600;9.890;2023-05-03T12:43:38;43.72;38.52;60.32;;
60031;Laerm;45901;47.600;9.890;2023-05-03T12:46:05;43.93;38.05;69.36;;
60031;Laerm;45901;47.600;9.890;2023-05-03T12:48:32;41.21;38.21;53.38;;
60031;Laerm;45901;47.600;9.890;2023-05-03T12:51:00;41.16;38.37;45.94;;
60031;Laerm;45901;47.600;9.890;2023-05-03T12:53:28;43.92;38.67;61.74;;
60031;Laerm;45901;47.600;9.890;2023-05-03T12:55:56;41.71;37.70;55.85;;
60031;Laerm;45901;47.600;9.890;2023-05-03T12:58:24;42.69;37.70;60.21;;
60031;Laerm;45901;47.600;9.890;2023-05-03T13:00:52;42.29;38.52;54.28;;
60031;Laerm;45901;47.600;9.890;2023-05-03T13:03:19;42.24;38.37;55.69;;
60031;Laerm;45901;47.600;9.890;2023-05-03T13:05:46;41.04;38.05;51.74;;
60031;Laerm;45901;47.600;9.890;2023-05-03T13:08:14;41.89;38.37;55.53;;
60031;Laerm;45901;47.600;9.890;2023-05-03T13:10:41;41.29;38.05;54.53;;
60031;Laerm;45901;47.600;9.890;2023-05-03T13:13:09;42.82;37.88;62.58;;
60031;Laerm;45901;47.600;9.890;2023-05-03T13:15:38;42.57;38.37;54.92;;
60031;Laerm;45901;47.600;9.890;2023-05-03T13:18:07;42.00;37.88;55.70;;
60031;Laerm;45901;47.600;9.890;2023-05-03T13:20:35;41.54;38.05;54.48;;
60031;Laerm;45901;47.600;9.890;2023-05-03T13:23:02;41.01;38.05;51.93;;
60031;Laerm;45901;47.600;9.890;2023-05-03T13:25:30;41.66;37.52;54.21;;
60031;Laerm;45901;47.600;9.890;2023-05-03T13:27:59;43.41;37.88;62.85;;
60031;Laerm;45901;47.600;9.890;2023-05-03T13:30:26;43.23;38.21;55.56;;
60031;Laerm;45901;47.600;9.890;2023-05-03T13:32:55;42.54;38.21;58.32;;
60031;Laerm;45901;47.600;9.890;2023-05-03T13:35:23;40.56;37.88;44.76;;
60031;Laerm;45901;47.600;9.890;2023-05-03T13:37:51;41.29;37.32;55.61;;
60031;Laerm;45901;47.600;9.890;2023-05-03T13:40:19;41.04;37.52;53.01;;
60031;Laerm;45901;47.600;9.890;2023-05-03T13:42:47;41.41;38.21;53.94;;
60031;Laerm;45901;47.600;9.890;2023-05-03T13:45:14;41.45;37.70;56.45;;
60031;Laerm;45901;47.600;9.890;2023-05-03T13:47:42;40.92;37.32;56.63;;
60031;Laerm;45901;47.600;9.890;2023-05-03T13:50:11;41.31;37.70;58.87;;
60031;Laerm;45901;47.600;9.890;2023-05-03T13:52:38;42.77;37.52;62.92;;
60031;Laerm;45901;47.600;9.890;2023-05-03T13:55:08;42.23;37.52;54.38;;